sensor_id;sensor_type;location;lat;lon;timestamp;P1;durP1;ratioP1;P2;durP2;ratioP2
29854;SDS011;16733;48.738;9.106;2023-02-21T00:00:26;3.42;;;1.73;;
29854;SDS011;16733;48.738;9.106;2023-02-21T00:03:10;3.53;;;2.22;;
29854;SDS011;16733;48.738;9.106;2023-02-21T00:05:54;3.95;;;1.63;;
29854;SDS011;16733;48.738;9.106;2023-02-21T00:12:00;3.55;;;1.85;;
29854;SDS011;16733;48.738;9.106;2023-02-21T00:14:44;3.20;;;1.67;;
29854;SDS011;16733;48.738;9.106;2023-02-21T00:17:28;3.80;;;1.33;;
29854;SDS011;16733;48.738;9.106;2023-02-21T00:20:12;2.50;;;1.35;;
29854;SDS011;16733;48.738;9.106;2023-02-21T00:22:56;5.40;;;1.20;;
29854;SDS011;16733;48.738;9.106;2023-02-21T00:25:40;2.33;;;1.27;;
29854;SDS011;16733;48.738;9.106;2023-02-21T00:28:24;3.50;;;1.77;;
29854;SDS011;16733;48.738;9.106;2023-02-21T00:31:08;2.92;;;1.50;;
29854;SDS011;16733;48.738;9.106;2023-02-21T00:33:52;3.63;;;1.65;;
29854;SDS011;16733;48.738;9.106;2023-02-21T00:36:36;7.68;;;1.42;;
29854;SDS011;16733;48.738;9.106;2023-02-21T00:39:21;4.20;;;1.42;;
29854;SDS011;16733;48.738;9.106;2023-02-21T00:45:27;6.50;;;1.55;;
29854;SDS011;16733;48.738;9.106;2023-02-21T00:51:33;2.35;;;1.30;;
29854;SDS011;16733;48.738;9.106;2023-02-21T00:54:17;2.08;;;1.10;;
29854;SDS011;16733;48.738;9.106;2023-02-21T00:57:01;2.70;;;1.30;;
29854;SDS011;16733;48.738;9.106;2023-02-21T00:59:45;2.63;;;1.25;;
29854;SDS011;16733;48.738;9.106;2023-02-21T01:02:29;2.17;;;1.20;;
29854;SDS011;16733;48.738;9.106;2023-02-21T01:05:14;3.75;;;1.10;;
29854;SDS011;16733;48.738;9.106;2023-02-21T01:07:58;4.78;;;1.38;;
29854;SDS011;16733;48.738;9.106;2023-02-21T01:10:42;2.58;;;1.13;;
29854;SDS011;16733;48.738;9.106;2023-02-21T01:16:49;4.25;;;1.27;;
29854;SDS011;16733;48.738;9.106;2023-02-21T01:22:54;5.85;;;1.50;;
29854;SDS011;16733;48.738;9.106;2023-02-21T01:25:38;1.67;;;1.25;;
29854;SDS011;16733;48.738;9.106;2023-02-21T01:28:23;5.85;;;1.05;;
29854;SDS011;16733;48.738;9.106;2023-02-21T01:31:06;1.60;;;1.02;;
29854;SDS011;16733;48.738;9.106;2023-02-21T01:33:51;4.03;;;1.20;;
29854;SDS011;16733;48.738;9.106;2023-02-21T01:36:35;4.05;;;1.48;;
29854;SDS011;16733;48.738;9.106;2023-02-21T01:39:19;4.03;;;1.10;;
29854;SDS011;16733;48.738;9.106;2023-02-21T01:42:03;4.93;;;1.42;;
29854;SDS011;16733;48.738;9.106;2023-02-21T01:44:47;6.13;;;1.33;;
29854;SDS011;16733;48.738;9.106;2023-02-21T01:47:32;2.88;;;1.08;;
29854;SDS011;16733;48.738;9.106;2023-02-21T01:50:21;5.93;;;1.58;;
29854;SDS011;16733;48.738;9.106;2023-02-21T01:53:14;2.85;;;1.20;;
29854;SDS011;16733;48.738;9.106;2023-02-21T01:56:02;2.78;;;1.23;;
29854;SDS011;16733;48.738;9.106;2023-02-21T01:58:48;2.45;;;1.08;;
29854;SDS011;16733;48.738;9.106;2023-02-21T02:01:37;2.90;;;1.17;;
29854;SDS011;16733;48.738;9.106;2023-02-21T02:04:34;3.50;;;1.35;;
29854;SDS011;16733;48.738;9.106;2023-02-21T02:10:41;2.80;;;1.10;;
29854;SDS011;16733;48.738;9.106;2023-02-21T02:35:55;6.25;;;1.17;;
29854;SDS011;16733;48.738;9.106;2023-02-21T02:43:53;1.15;;;0.90;;
29854;SDS011;16733;48.738;9.106;2023-02-21T02:46:25;4.18;;;1.50;;
29854;SDS011;16733;48.738;9.106;2023-02-21T02:51:56;2.30;;;0.95;;
29854;SDS011;16733;48.738;9.106;2023-02-21T02:54:28;1.20;;;1.08;;
29854;SDS011;16733;48.738;9.106;2023-02-21T02:56:54;5.53;;;1.50;;
29854;SDS011;16733;48.738;9.106;2023-02-21T03:08:52;1.67;;;1.20;;
29854;SDS011;16733;48.738;9.106;2023-02-21T03:11:26;2.72;;;0.95;;
29854;SDS011;16733;48.738;9.106;2023-02-21T03:13:55;3.88;;;1.20;;
29854;SDS011;16733;48.738;9.106;2023-02-21T03:16:43;2.47;;;1.25;;
29854;SDS011;16733;48.738;9.106;2023-02-21T03:25:58;5.90;;;1.48;;
29854;SDS011;16733;48.738;9.106;2023-02-21T03:28:28;2.17;;;1.02;;
29854;SDS011;16733;48.738;9.106;2023-02-21T03:30:55;2.75;;;1.20;;
29854;SDS011;16733;48.738;9.106;2023-02-21T03:33:23;1.83;;;0.90;;
29854;SDS011;16733;48.738;9.106;2023-02-21T03:35:49;2.63;;;1.42;;
29854;SDS011;16733;48.738;9.106;2023-02-21T03:38:16;2.10;;;1.10;;
29854;SDS011;16733;48.738;9.106;2023-02-21T03:40:42;2.08;;;1.10;;
29854;SDS011;16733;48.738;9.106;2023-02-21T03:43:07;1.33;;;1.00;;
29854;SDS011;16733;48.738;9.106;2023-02-21T03:45:33;3.25;;;1.30;;
29854;SDS011;16733;48.738;9.106;2023-02-21T03:48:00;3.90;;;1.27;;
29854;SDS011;16733;48.738;9.106;2023-02-21T03:50:26;1.98;;;1.35;;
29854;SDS011;16733;48.738;9.106;2023-02-21T03:52:51;4.82;;;1.30;;
29854;SDS011;16733;48.738;9.106;2023-02-21T03:55:17;3.42;;;1.15;;
29854;SDS011;16733;48.738;9.106;2023-02-21T04:01:05;3.15;;;1.40;;
29854;SDS011;16733;48.738;9.106;2023-02-21T04:03:31;2.13;;;1.10;;
29854;SDS011;16733;48.738;9.106;2023-02-21T04:05:56;4.95;;;1.25;;
29854;SDS011;16733;48.738;9.106;2023-02-21T04:08:22;1.70;;;1.25;;
29854;SDS011;16733;48.738;9.106;2023-02-21T04:10:47;2.78;;;1.27;;
29854;SDS011;16733;48.738;9.106;2023-02-21T04:13:13;3.15;;;1.10;;
29854;SDS011;16733;48.738;9.106;2023-02-21T04:15:39;4.03;;;1.20;;
29854;SDS011;16733;48.738;9.106;2023-02-21T04:18:04;2.70;;;1.50;;
29854;SDS011;16733;48.738;9.106;2023-02-21T04:20:30;3.28;;;1.50;;
29854;SDS011;16733;48.738;9.106;2023-02-21T04:22:56;2.67;;;1.23;;
29854;SDS011;16733;48.738;9.106;2023-02-21T04:25:21;3.70;;;1.48;;
29854;SDS011;16733;48.738;9.106;2023-02-21T04:27:47;1.70;;;1.25;;
29854;SDS011;16733;48.738;9.106;2023-02-21T04:30:13;1.85;;;1.20;;
29854;SDS011;16733;48.738;9.106;2023-02-21T04:32:38;6.75;;;1.20;;
29854;SDS011;16733;48.738;9.106;2023-02-21T04:35:04;3.75;;;1.30;;
29854;SDS011;16733;48.738;9.106;2023-02-21T04:37:30;6.50;;;1.63;;
29854;SDS011;16733;48.738;9.106;2023-02-21T04:39:56;7.78;;;1.48;;
29854;SDS011;16733;48.738;9.106;2023-02-21T04:42:21;6.13;;;1.60;;
29854;SDS011;16733;48.738;9.106;2023-02-21T04:44:47;5.78;;;1.52;;
29854;SDS011;16733;48.738;9.106;2023-02-21T04:47:12;3.70;;;1.13;;
29854;SDS011;16733;48.738;9.106;2023-02-21T04:49:38;4.70;;;1.20;;
29854;SDS011;16733;48.738;9.106;2023-02-21T04:55:25;3.05;;;1.48;;
29854;SDS011;16733;48.738;9.106;2023-02-21T04:57:51;4.35;;;1.65;;
29854;SDS011;16733;48.738;9.106;2023-02-21T05:03:39;5.10;;;1.65;;
29854;SDS011;16733;48.738;9.106;2023-02-21T05:06:04;3.25;;;1.38;;
29854;SDS011;16733;48.738;9.106;2023-02-21T05:11:52;4.60;;;1.40;;
29854;SDS011;16733;48.738;9.106;2023-02-21T05:14:18;3.22;;;1.33;;
29854;SDS011;16733;48.738;9.106;2023-02-21T05:16:43;1.98;;;1.23;;
29854;SDS011;16733;48.738;9.106;2023-02-21T05:19:09;5.25;;;1.42;;
29854;SDS011;16733;48.738;9.106;2023-02-21T05:21:35;3.53;;;1.42;;
29854;SDS011;16733;48.738;9.106;2023-02-21T05:24:02;3.67;;;1.40;;
29854;SDS011;16733;48.738;9.106;2023-02-21T05:26:35;6.88;;;1.70;;
29854;SDS011;16733;48.738;9.106;2023-02-21T05:29:02;5.05;;;1.75;;
29854;SDS011;16733;48.738;9.106;2023-02-21T05:38:13;7.35;;;1.38;;
29854;SDS011;16733;48.738;9.106;2023-02-21T05:47:24;3.15;;;1.50;;
29854;SDS011;16733;48.738;9.106;2023-02-21T05:49:49;4.22;;;1.83;;
29854;SDS011;16733;48.738;9.106;2023-02-21T05:55:37;2.58;;;1.25;;
29854;SDS011;16733;48.738;9.106;2023-02-21T05:58:03;3.05;;;1.58;;
29854;SDS011;16733;48.738;9.106;2023-02-21T06:00:29;3.45;;;1.25;;
29854;SDS011;16733;48.738;9.106;2023-02-21T06:02:55;5.18;;;2.17;;
29854;SDS011;16733;48.738;9.106;2023-02-21T06:05:21;5.30;;;1.55;;
29854;SDS011;16733;48.738;9.106;2023-02-21T06:07:47;4.93;;;1.88;;
29854;SDS011;16733;48.738;9.106;2023-02-21T06:10:14;4.65;;;1.65;;
29854;SDS011;16733;48.738;9.106;2023-02-21T06:12:40;3.03;;;1.65;;
29854;SDS011;16733;48.738;9.106;2023-02-21T06:15:06;4.72;;;1.50;;
29854;SDS011;16733;48.738;9.106;2023-02-21T06:20:55;2.35;;;1.33;;
29854;SDS011;16733;48.738;9.106;2023-02-21T06:23:20;2.35;;;1.35;;
29854;SDS011;16733;48.738;9.106;2023-02-21T06:29:08;1.73;;;1.23;;
29854;SDS011;16733;48.738;9.106;2023-02-21T06:31:36;4.28;;;1.27;;
29854;SDS011;16733;48.738;9.106;2023-02-21T06:44:07;4.88;;;1.83;;
29854;SDS011;16733;48.738;9.106;2023-02-21T06:46:33;3.90;;;1.70;;
29854;SDS011;16733;48.738;9.106;2023-02-21T06:49:01;5.20;;;1.67;;
29854;SDS011;16733;48.738;9.106;2023-02-21T06:51:37;3.50;;;1.67;;
29854;SDS011;16733;48.738;9.106;2023-02-21T06:54:05;11.40;;;2.42;;
29854;SDS011;16733;48.738;9.106;2023-02-21T06:56:31;4.85;;;2.10;;
29854;SDS011;16733;48.738;9.106;2023-02-21T07:02:19;3.17;;;1.60;;
29854;SDS011;16733;48.738;9.106;2023-02-21T07:04:45;6.13;;;1.70;;
29854;SDS011;16733;48.738;9.106;2023-02-21T07:07:11;9.52;;;1.98;;
29854;SDS011;16733;48.738;9.106;2023-02-21T07:09:37;7.85;;;1.83;;
29854;SDS011;16733;48.738;9.106;2023-02-21T07:12:03;4.35;;;1.42;;
29854;SDS011;16733;48.738;9.106;2023-02-21T07:14:28;4.25;;;1.75;;
29854;SDS011;16733;48.738;9.106;2023-02-21T07:16:54;5.03;;;1.52;;
29854;SDS011;16733;48.738;9.106;2023-02-21T07:19:20;8.48;;;3.13;;
29854;SDS011;16733;48.738;9.106;2023-02-21T07:21:45;3.60;;;1.67;;
29854;SDS011;16733;48.738;9.106;2023-02-21T07:27:33;6.47;;;2.25;;
29854;SDS011;16733;48.738;9.106;2023-02-21T07:29:59;6.15;;;1.98;;
29854;SDS011;16733;48.738;9.106;2023-02-21T07:32:24;6.03;;;1.52;;
29854;SDS011;16733;48.738;9.106;2023-02-21T07:38:22;8.05;;;1.80;;
29854;SDS011;16733;48.738;9.106;2023-02-21T07:44:10;5.65;;;1.55;;
29854;SDS011;16733;48.738;9.106;2023-02-21T07:46:36;6.80;;;1.98;;
29854;SDS011;16733;48.738;9.106;2023-02-21T07:52:24;2.60;;;1.40;;
29854;SDS011;16733;48.738;9.106;2023-02-21T07:54:49;5.93;;;2.03;;
29854;SDS011;16733;48.738;9.106;2023-02-21T07:57:15;4.95;;;1.50;;
29854;SDS011;16733;48.738;9.106;2023-02-21T08:03:03;2.50;;;1.40;;
29854;SDS011;16733;48.738;9.106;2023-02-21T08:05:29;3.50;;;1.65;;
29854;SDS011;16733;48.738;9.106;2023-02-21T08:11:17;7.28;;;2.17;;
29854;SDS011;16733;48.738;9.106;2023-02-21T08:13:42;7.43;;;2.10;;
29854;SDS011;16733;48.738;9.106;2023-02-21T08:19:30;2.58;;;1.73;;
29854;SDS011;16733;48.738;9.106;2023-02-21T08:21:55;9.60;;;2.15;;
29854;SDS011;16733;48.738;9.106;2023-02-21T08:34:27;6.50;;;1.63;;
29854;SDS011;16733;48.738;9.106;2023-02-21T08:40:19;2.60;;;1.30;;
29854;SDS011;16733;48.738;9.106;2023-02-21T08:42:47;6.95;;;1.58;;
29854;SDS011;16733;48.738;9.106;2023-02-21T08:48:39;8.55;;;2.03;;
29854;SDS011;16733;48.738;9.106;2023-02-21T08:51:05;8.50;;;1.27;;
29854;SDS011;16733;48.738;9.106;2023-02-21T08:56:52;3.30;;;1.20;;
29854;SDS011;16733;48.738;9.106;2023-02-21T08:59:19;2.80;;;1.17;;
29854;SDS011;16733;48.738;9.106;2023-02-21T09:01:44;2.35;;;1.30;;
29854;SDS011;16733;48.738;9.106;2023-02-21T09:04:10;4.13;;;1.55;;
29854;SDS011;16733;48.738;9.106;2023-02-21T09:06:36;5.40;;;1.40;;
29854;SDS011;16733;48.738;9.106;2023-02-21T09:09:01;3.25;;;1.23;;
29854;SDS011;16733;48.738;9.106;2023-02-21T09:11:27;6.50;;;1.92;;
29854;SDS011;16733;48.738;9.106;2023-02-21T09:13:53;6.15;;;2.42;;
29854;SDS011;16733;48.738;9.106;2023-02-21T09:16:19;5.05;;;2.00;;
29854;SDS011;16733;48.738;9.106;2023-02-21T09:22:07;8.75;;;2.15;;
29854;SDS011;16733;48.738;9.106;2023-02-21T09:24:34;7.95;;;2.92;;
29854;SDS011;16733;48.738;9.106;2023-02-21T09:30:22;6.90;;;2.28;;
29854;SDS011;16733;48.738;9.106;2023-02-21T09:32:50;9.27;;;2.10;;
29854;SDS011;16733;48.738;9.106;2023-02-21T09:35:16;14.70;;;2.55;;
29854;SDS011;16733;48.738;9.106;2023-02-21T09:37:43;9.82;;;2.45;;
29854;SDS011;16733;48.738;9.106;2023-02-21T09:43:03;9.80;;;2.45;;
29854;SDS011;16733;48.738;9.106;2023-02-21T09:45:33;10.02;;;3.30;;
29854;SDS011;16733;48.738;9.106;2023-02-21T09:48:18;10.25;;;2.80;;
29854;SDS011;16733;48.738;9.106;2023-02-21T09:50:46;6.88;;;2.15;;
29854;SDS011;16733;48.738;9.106;2023-02-21T09:53:16;11.68;;;2.72;;
29854;SDS011;16733;48.738;9.106;2023-02-21T09:55:45;11.70;;;2.20;;
29854;SDS011;16733;48.738;9.106;2023-02-21T09:58:16;7.43;;;2.75;;
29854;SDS011;16733;48.738;9.106;2023-02-21T10:00:43;10.32;;;2.63;;
29854;SDS011;16733;48.738;9.106;2023-02-21T10:03:19;5.60;;;2.30;;
29854;SDS011;16733;48.738;9.106;2023-02-21T10:18:12;7.63;;;1.98;;
29854;SDS011;16733;48.738;9.106;2023-02-21T10:21:00;5.90;;;2.22;;
29854;SDS011;16733;48.738;9.106;2023-02-21T10:26:03;7.77;;;2.33;;
29854;SDS011;16733;48.738;9.106;2023-02-21T10:28:42;14.52;;;2.70;;
29854;SDS011;16733;48.738;9.106;2023-02-21T10:31:13;4.50;;;2.22;;
29854;SDS011;16733;48.738;9.106;2023-02-21T10:34:24;4.38;;;2.00;;
29854;SDS011;16733;48.738;9.106;2023-02-21T10:36:52;6.28;;;1.65;;
29854;SDS011;16733;48.738;9.106;2023-02-21T10:39:37;5.88;;;1.65;;
29854;SDS011;16733;48.738;9.106;2023-02-21T10:48:52;4.10;;;1.75;;
29854;SDS011;16733;48.738;9.106;2023-02-21T10:51:33;6.63;;;1.97;;
29854;SDS011;16733;48.738;9.106;2023-02-21T10:56:48;6.88;;;1.50;;
29854;SDS011;16733;48.738;9.106;2023-02-21T10:59:29;5.63;;;1.33;;
29854;SDS011;16733;48.738;9.106;2023-02-21T11:01:57;6.10;;;1.60;;
29854;SDS011;16733;48.738;9.106;2023-02-21T11:04:29;5.03;;;1.75;;
29854;SDS011;16733;48.738;9.106;2023-02-21T11:10:36;8.82;;;1.08;;
29854;SDS011;16733;48.738;9.106;2023-02-21T11:19:09;8.15;;;1.27;;
29854;SDS011;16733;48.738;9.106;2023-02-21T11:27:25;4.32;;;0.93;;
29854;SDS011;16733;48.738;9.106;2023-02-21T11:29:54;2.03;;;1.30;;
29854;SDS011;16733;48.738;9.106;2023-02-21T11:44:47;4.82;;;2.05;;
29854;SDS011;16733;48.738;9.106;2023-02-21T11:47:27;4.57;;;1.63;;
29854;SDS011;16733;48.738;9.106;2023-02-21T11:50:26;3.85;;;1.73;;
29854;SDS011;16733;48.738;9.106;2023-02-21T12:02:45;3.80;;;1.63;;
29854;SDS011;16733;48.738;9.106;2023-02-21T12:14:24;5.35;;;1.88;;
29854;SDS011;16733;48.738;9.106;2023-02-21T12:30:58;2.67;;;1.55;;
29854;SDS011;16733;48.738;9.106;2023-02-21T12:33:40;3.40;;;1.50;;
29854;SDS011;16733;48.738;9.106;2023-02-21T12:36:17;4.47;;;1.30;;
29854;SDS011;16733;48.738;9.106;2023-02-21T12:45:13;1.83;;;1.00;;
29854;SDS011;16733;48.738;9.106;2023-02-21T12:50:17;2.42;;;0.93;;
29854;SDS011;16733;48.738;9.106;2023-02-21T12:55:28;2.15;;;0.80;;
29854;SDS011;16733;48.738;9.106;2023-02-21T13:06:22;2.70;;;0.95;;
29854;SDS011;16733;48.738;9.106;2023-02-21T13:11:32;1.00;;;0.70;;
29854;SDS011;16733;48.738;9.106;2023-02-21T13:14:02;5.15;;;0.90;;
29854;SDS011;16733;48.738;9.106;2023-02-21T13:16:34;4.03;;;0.90;;
29854;SDS011;16733;48.738;9.106;2023-02-21T13:19:01;5.80;;;0.80;;
29854;SDS011;16733;48.738;9.106;2023-02-21T13:29:41;3.72;;;0.80;;
29854;SDS011;16733;48.738;9.106;2023-02-21T13:34:37;1.95;;;0.50;;
29854;SDS011;16733;48.738;9.106;2023-02-21T13:37:13;5.13;;;0.60;;
29854;SDS011;16733;48.738;9.106;2023-02-21T13:39:45;1.67;;;0.73;;
29854;SDS011;16733;48.738;9.106;2023-02-21T13:42:17;1.42;;;0.60;;
29854;SDS011;16733;48.738;9.106;2023-02-21T13:44:46;12.57;;;1.02;;
29854;SDS011;16733;48.738;9.106;2023-02-21T13:50:39;1.85;;;0.55;;
29854;SDS011;16733;48.738;9.106;2023-02-21T13:53:11;1.00;;;0.60;;
29854;SDS011;16733;48.738;9.106;2023-02-21T13:56:15;6.25;;;0.70;;
29854;SDS011;16733;48.738;9.106;2023-02-21T14:01:38;1.60;;;0.52;;
29854;SDS011;16733;48.738;9.106;2023-02-21T14:07:08;3.08;;;0.40;;
29854;SDS011;16733;48.738;9.106;2023-02-21T14:09:35;1.02;;;0.60;;
29854;SDS011;16733;48.738;9.106;2023-02-21T14:12:04;4.38;;;0.52;;
29854;SDS011;16733;48.738;9.106;2023-02-21T14:17:52;2.33;;;0.40;;
29854;SDS011;16733;48.738;9.106;2023-02-21T14:20:19;0.50;;;0.32;;
29854;SDS011;16733;48.738;9.106;2023-02-21T14:26:31;0.50;;;0.32;;
29854;SDS011;16733;48.738;9.106;2023-02-21T14:29:11;1.40;;;0.50;;
29854;SDS011;16733;48.738;9.106;2023-02-21T14:35:12;5.63;;;1.00;;
29854;SDS011;16733;48.738;9.106;2023-02-21T14:40:40;1.25;;;0.40;;
29854;SDS011;16733;48.738;9.106;2023-02-21T14:43:23;2.78;;;0.50;;
29854;SDS011;16733;48.738;9.106;2023-02-21T15:03:35;0.40;;;0.30;;
29854;SDS011;16733;48.738;9.106;2023-02-21T15:06:09;1.70;;;0.43;;
29854;SDS011;16733;48.738;9.106;2023-02-21T15:12:06;1.65;;;0.50;;
29854;SDS011;16733;48.738;9.106;2023-02-21T15:14:45;1.25;;;0.47;;
29854;SDS011;16733;48.738;9.106;2023-02-21T15:17:19;1.65;;;0.75;;
29854;SDS011;16733;48.738;9.106;2023-02-21T15:19:47;1.08;;;0.50;;
29854;SDS011;16733;48.738;9.106;2023-02-21T15:22:26;7.18;;;0.90;;
29854;SDS011;16733;48.738;9.106;2023-02-21T15:31:02;3.92;;;0.40;;
29854;SDS011;16733;48.738;9.106;2023-02-21T15:37:02;0.85;;;0.52;;
29854;SDS011;16733;48.738;9.106;2023-02-21T15:43:22;5.88;;;1.10;;
29854;SDS011;16733;48.738;9.106;2023-02-21T15:49:28;2.97;;;0.73;;
29854;SDS011;16733;48.738;9.106;2023-02-21T15:52:02;7.85;;;1.27;;
29854;SDS011;16733;48.738;9.106;2023-02-21T15:57:58;6.60;;;1.05;;
29854;SDS011;16733;48.738;9.106;2023-02-21T16:00:32;4.38;;;0.80;;
29854;SDS011;16733;48.738;9.106;2023-02-21T16:13:13;1.92;;;0.80;;
29854;SDS011;16733;48.738;9.106;2023-02-21T16:15:39;6.57;;;1.08;;
29854;SDS011;16733;48.738;9.106;2023-02-21T16:25:03;2.92;;;1.10;;
29854;SDS011;16733;48.738;9.106;2023-02-21T16:27:44;2.67;;;1.20;;
29854;SDS011;16733;48.738;9.106;2023-02-21T16:33:36;3.08;;;1.20;;
29854;SDS011;16733;48.738;9.106;2023-02-21T16:36:06;5.15;;;1.25;;
29854;SDS011;16733;48.738;9.106;2023-02-21T16:38:33;1.45;;;0.88;;
29854;SDS011;16733;48.738;9.106;2023-02-21T16:40:59;9.40;;;1.90;;
29854;SDS011;16733;48.738;9.106;2023-02-21T16:43:25;1.45;;;1.00;;
29854;SDS011;16733;48.738;9.106;2023-02-21T16:45:53;4.57;;;1.15;;
29854;SDS011;16733;48.738;9.106;2023-02-21T16:48:21;7.75;;;1.35;;
29854;SDS011;16733;48.738;9.106;2023-02-21T16:50:51;3.65;;;1.77;;
29854;SDS011;16733;48.738;9.106;2023-02-21T16:56:43;8.27;;;1.50;;
29854;SDS011;16733;48.738;9.106;2023-02-21T17:02:33;6.32;;;1.58;;
29854;SDS011;16733;48.738;9.106;2023-02-21T17:04:58;3.15;;;1.15;;
29854;SDS011;16733;48.738;9.106;2023-02-21T17:10:46;2.97;;;1.63;;
29854;SDS011;16733;48.738;9.106;2023-02-21T17:13:11;9.18;;;1.80;;
29854;SDS011;16733;48.738;9.106;2023-02-21T17:18:59;6.22;;;1.70;;
29854;SDS011;16733;48.738;9.106;2023-02-21T17:21:25;2.15;;;1.30;;
29854;SDS011;16733;48.738;9.106;2023-02-21T17:23:50;6.25;;;1.85;;
29854;SDS011;16733;48.738;9.106;2023-02-21T17:29:38;3.20;;;1.52;;
29854;SDS011;16733;48.738;9.106;2023-02-21T17:32:04;4.22;;;1.50;;
29854;SDS011;16733;48.738;9.106;2023-02-21T17:41:15;8.13;;;1.85;;
29854;SDS011;16733;48.738;9.106;2023-02-21T17:43:41;6.20;;;3.00;;
29854;SDS011;16733;48.738;9.106;2023-02-21T17:46:13;9.48;;;3.33;;
29854;SDS011;16733;48.738;9.106;2023-02-21T17:48:41;13.05;;;3.33;;
29854;SDS011;16733;48.738;9.106;2023-02-21T17:51:08;8.70;;;3.20;;
29854;SDS011;16733;48.738;9.106;2023-02-21T17:56:05;5.40;;;1.58;;
29854;SDS011;16733;48.738;9.106;2023-02-21T17:58:31;4.65;;;1.60;;
29854;SDS011;16733;48.738;9.106;2023-02-21T18:00:57;2.80;;;1.55;;
29854;SDS011;16733;48.738;9.106;2023-02-21T18:03:23;3.58;;;1.60;;
29854;SDS011;16733;48.738;9.106;2023-02-21T18:09:10;5.50;;;1.75;;
29854;SDS011;16733;48.738;9.106;2023-02-21T18:11:36;4.13;;;1.85;;
29854;SDS011;16733;48.738;9.106;2023-02-21T18:17:24;4.38;;;1.83;;
29854;SDS011;16733;48.738;9.106;2023-02-21T18:19:50;6.68;;;1.83;;
29854;SDS011;16733;48.738;9.106;2023-02-21T18:25:38;2.60;;;1.52;;
29854;SDS011;16733;48.738;9.106;2023-02-21T18:38:13;4.68;;;1.70;;
29854;SDS011;16733;48.738;9.106;2023-02-21T18:40:40;3.47;;;1.85;;
29854;SDS011;16733;48.738;9.106;2023-02-21T18:46:31;5.53;;;1.83;;
29854;SDS011;16733;48.738;9.106;2023-02-21T18:48:57;6.75;;;1.80;;
29854;SDS011;16733;48.738;9.106;2023-02-21T18:51:22;4.93;;;1.83;;
29854;SDS011;16733;48.738;9.106;2023-02-21T18:57:10;4.47;;;1.80;;
29854;SDS011;16733;48.738;9.106;2023-02-21T18:59:36;2.50;;;1.67;;
29854;SDS011;16733;48.738;9.106;2023-02-21T19:02:01;5.22;;;2.13;;
29854;SDS011;16733;48.738;9.106;2023-02-21T19:07:49;3.65;;;1.75;;
29854;SDS011;16733;48.738;9.106;2023-02-21T19:13:37;2.10;;;1.20;;
29854;SDS011;16733;48.738;9.106;2023-02-21T19:16:02;3.50;;;1.60;;
29854;SDS011;16733;48.738;9.106;2023-02-21T19:21:50;5.55;;;1.65;;
29854;SDS011;16733;48.738;9.106;2023-02-21T19:24:16;2.78;;;1.77;;
29854;SDS011;16733;48.738;9.106;2023-02-21T19:26:41;5.38;;;1.98;;
29854;SDS011;16733;48.738;9.106;2023-02-21T19:32:11;3.60;;;1.65;;
29854;SDS011;16733;48.738;9.106;2023-02-21T19:34:36;4.05;;;2.10;;
29854;SDS011;16733;48.738;9.106;2023-02-21T19:37:02;6.38;;;1.77;;
29854;SDS011;16733;48.738;9.106;2023-02-21T19:39:27;6.68;;;1.90;;
29854;SDS011;16733;48.738;9.106;2023-02-21T19:41:53;5.13;;;1.70;;
29854;SDS011;16733;48.738;9.106;2023-02-21T19:44:19;5.55;;;1.85;;
29854;SDS011;16733;48.738;9.106;2023-02-21T19:46:44;7.18;;;1.73;;
29854;SDS011;16733;48.738;9.106;2023-02-21T19:49:10;4.88;;;1.60;;
29854;SDS011;16733;48.738;9.106;2023-02-21T19:51:44;11.15;;;1.92;;
29854;SDS011;16733;48.738;9.106;2023-02-21T19:54:12;5.63;;;2.00;;
29854;SDS011;16733;48.738;9.106;2023-02-21T19:56:38;3.72;;;1.80;;
29854;SDS011;16733;48.738;9.106;2023-02-21T19:59:04;2.22;;;1.35;;
29854;SDS011;16733;48.738;9.106;2023-02-21T20:01:29;4.00;;;1.70;;
29854;SDS011;16733;48.738;9.106;2023-02-21T20:03:56;7.55;;;2.47;;
29854;SDS011;16733;48.738;9.106;2023-02-21T20:06:23;4.70;;;1.80;;
29854;SDS011;16733;48.738;9.106;2023-02-21T20:09:06;6.18;;;1.95;;
29854;SDS011;16733;48.738;9.106;2023-02-21T20:18:17;7.97;;;2.10;;
29854;SDS011;16733;48.738;9.106;2023-02-21T20:20:42;8.55;;;2.17;;
29854;SDS011;16733;48.738;9.106;2023-02-21T20:23:11;4.28;;;1.95;;
29854;SDS011;16733;48.738;9.106;2023-02-21T20:25:36;7.35;;;2.00;;
29854;SDS011;16733;48.738;9.106;2023-02-21T20:28:02;5.15;;;2.35;;
29854;SDS011;16733;48.738;9.106;2023-02-21T20:30:28;6.10;;;2.30;;
29854;SDS011;16733;48.738;9.106;2023-02-21T20:32:53;5.63;;;1.90;;
29854;SDS011;16733;48.738;9.106;2023-02-21T20:35:19;6.72;;;2.25;;
29854;SDS011;16733;48.738;9.106;2023-02-21T20:37:45;5.22;;;2.15;;
29854;SDS011;16733;48.738;9.106;2023-02-21T20:40:11;4.80;;;1.95;;
29854;SDS011;16733;48.738;9.106;2023-02-21T20:42:40;4.70;;;1.90;;
29854;SDS011;16733;48.738;9.106;2023-02-21T20:45:06;5.60;;;2.13;;
29854;SDS011;16733;48.738;9.106;2023-02-21T20:47:34;8.90;;;2.17;;
29854;SDS011;16733;48.738;9.106;2023-02-21T20:50:00;7.43;;;2.10;;
29854;SDS011;16733;48.738;9.106;2023-02-21T20:55:48;7.53;;;2.55;;
29854;SDS011;16733;48.738;9.106;2023-02-21T20:58:14;6.80;;;2.30;;
29854;SDS011;16733;48.738;9.106;2023-02-21T21:00:40;6.18;;;2.50;;
29854;SDS011;16733;48.738;9.106;2023-02-21T21:03:06;6.05;;;2.90;;
29854;SDS011;16733;48.738;9.106;2023-02-21T21:05:33;3.58;;;2.03;;
29854;SDS011;16733;48.738;9.106;2023-02-21T21:07:59;7.88;;;2.65;;
29854;SDS011;16733;48.738;9.106;2023-02-21T21:10:25;5.70;;;2.70;;
29854;SDS011;16733;48.738;9.106;2023-02-21T21:12:51;3.97;;;2.40;;
29854;SDS011;16733;48.738;9.106;2023-02-21T21:18:39;4.38;;;2.58;;
29854;SDS011;16733;48.738;9.106;2023-02-21T21:21:05;4.13;;;2.15;;
29854;SDS011;16733;48.738;9.106;2023-02-21T21:26:53;6.43;;;2.17;;
29854;SDS011;16733;48.738;9.106;2023-02-21T21:29:19;4.50;;;2.40;;
29854;SDS011;16733;48.738;9.106;2023-02-21T21:31:50;5.00;;;2.17;;
29854;SDS011;16733;48.738;9.106;2023-02-21T21:35:19;7.72;;;2.20;;
29854;SDS011;16733;48.738;9.106;2023-02-21T21:37:45;5.22;;;2.72;;
29854;SDS011;16733;48.738;9.106;2023-02-21T21:43:33;7.25;;;2.72;;
29854;SDS011;16733;48.738;9.106;2023-02-21T21:45:58;9.27;;;2.35;;
29854;SDS011;16733;48.738;9.106;2023-02-21T21:48:24;8.55;;;2.72;;
29854;SDS011;16733;48.738;9.106;2023-02-21T21:54:17;14.00;;;2.63;;
29854;SDS011;16733;48.738;9.106;2023-02-21T21:56:46;9.13;;;2.53;;
29854;SDS011;16733;48.738;9.106;2023-02-21T22:02:34;6.40;;;2.20;;
29854;SDS011;16733;48.738;9.106;2023-02-21T22:05:00;4.85;;;2.17;;
29854;SDS011;16733;48.738;9.106;2023-02-21T22:07:27;7.28;;;2.85;;
29854;SDS011;16733;48.738;9.106;2023-02-21T22:13:14;9.27;;;2.55;;
29854;SDS011;16733;48.738;9.106;2023-02-21T22:19:06;5.13;;;2.25;;
29854;SDS011;16733;48.738;9.106;2023-02-21T22:21:32;7.80;;;3.40;;
29854;SDS011;16733;48.738;9.106;2023-02-21T22:27:20;4.57;;;2.03;;
29854;SDS011;16733;48.738;9.106;2023-02-21T22:29:47;6.28;;;2.47;;
29854;SDS011;16733;48.738;9.106;2023-02-21T22:32:13;4.63;;;2.17;;
29854;SDS011;16733;48.738;9.106;2023-02-21T22:38:02;8.25;;;2.28;;
29854;SDS011;16733;48.738;9.106;2023-02-21T22:40:29;5.00;;;2.60;;
29854;SDS011;16733;48.738;9.106;2023-02-21T22:43:00;7.40;;;2.83;;
29854;SDS011;16733;48.738;9.106;2023-02-21T22:45:29;14.73;;;2.40;;
29854;SDS011;16733;48.738;9.106;2023-02-21T22:47:58;6.68;;;2.60;;
29854;SDS011;16733;48.738;9.106;2023-02-21T22:50:27;7.70;;;2.83;;
29854;SDS011;16733;48.738;9.106;2023-02-21T22:52:58;13.10;;;2.70;;
29854;SDS011;16733;48.738;9.106;2023-02-21T22:58:49;5.95;;;2.65;;
29854;SDS011;16733;48.738;9.106;2023-02-21T23:01:16;6.05;;;2.95;;
29854;SDS011;16733;48.738;9.106;2023-02-21T23:07:06;7.55;;;2.97;;
29854;SDS011;16733;48.738;9.106;2023-02-21T23:09:32;5.78;;;3.00;;
29854;SDS011;16733;48.738;9.106;2023-02-21T23:12:01;8.60;;;2.70;;
29854;SDS011;16733;48.738;9.106;2023-02-21T23:17:50;8.93;;;3.38;;